createdAt,value
2023-03-31T00:00:50.073Z,94102.88
2023-03-31T00:03:22.349Z,94098.41
2023-03-31T00:05:53.727Z,94101.69
2023-03-31T00:08:21.541Z,94091.56
2023-03-31T00:10:49.291Z,94101.22
2023-03-31T00:13:16.581Z,94079.94
2023-03-31T00:15:43.471Z,94094.63
2023-03-31T00:18:10.349Z,94092.88
2023-03-31T00:20:38.320Z,94085.53
2023-03-31T00:23:11.312Z,94076.56
2023-03-31T00:25:42.055Z,94076.72
2023-03-31T00:28:09.081Z,94072.78
2023-03-31T00:30:36.046Z,94061.66
2023-03-31T00:33:02.892Z,94051.38
2023-03-31T00:35:29.795Z,94050.75
2023-03-31T00:37:58.206Z,94052.81
2023-03-31T00:40:25.214Z,94049.56
2023-03-31T00:42:52.282Z,94052.53
2023-03-31T00:45:27.531Z,94046.00
2023-03-31T00:48:10.487Z,94044.41
2023-03-31T00:50:54.194Z,94032.81
2023-03-31T00:53:27.243Z,94023.16
2023-03-31T00:55:59.571Z,94023.16
2023-03-31T00:58:29.402Z,94016.97
2023-03-31T01:00:58.593Z,94004.72
2023-03-31T01:03:25.599Z,94014.03
2023-03-31T01:05:58.904Z,94004.22
2023-03-31T01:08:27.909Z,94001.59
2023-03-31T01:10:58.843Z,94007.81
2023-03-31T01:13:27.738Z,94009.44
2023-03-31T01:15:55.100Z,94008.13
2023-03-31T01:18:22.842Z,94016.00
2023-03-31T01:21:03.963Z,94005.22
2023-03-31T01:24:24.434Z,94020.91
2023-03-31T01:27:05.546Z,93998.38
2023-03-31T01:29:52.149Z,94012.41
2023-03-31T01:32:40.665Z,94005.22
2023-03-31T01:35:10.136Z,94005.56
2023-03-31T01:37:58.230Z,94002.09
2023-03-31T01:40:55.940Z,94001.28
2023-03-31T01:43:49.025Z,94006.22
2023-03-31T01:46:30.712Z,94000.97
2023-03-31T01:49:29.487Z,94005.56
2023-03-31T01:52:30.378Z,94006.22
2023-03-31T01:55:36.491Z,94000.00
2023-03-31T01:58:20.044Z,94010.94
2023-03-31T02:01:02.100Z,94013.72
2023-03-31T02:03:34.665Z,94018.94
2023-03-31T02:06:12.065Z,94015.88
2023-03-31T02:08:46.416Z,94000.66
2023-03-31T02:11:13.901Z,93979.41
2023-03-31T02:13:47.117Z,93955.22
2023-03-31T02:16:24.696Z,93927.25
2023-03-31T02:19:02.472Z,93917.94
2023-03-31T02:21:37.157Z,93888.19
2023-03-31T02:24:09.886Z,93848.31
2023-03-31T02:26:44.214Z,93856.78
2023-03-31T02:29:11.095Z,93864.34
2023-03-31T02:32:04.181Z,93872.47
2023-03-31T02:34:31.200Z,93865.31
2023-03-31T02:36:58.218Z,93845.03
2023-03-31T02:39:33.414Z,93848.44
2023-03-31T02:42:07.212Z,93840.91
2023-03-31T02:44:36.299Z,93832.88
2023-03-31T02:47:13.764Z,93808.69
2023-03-31T02:49:49.749Z,93829.75
2023-03-31T02:52:34.915Z,93822.78
2023-03-31T02:55:37.814Z,93813.78
2023-03-31T02:58:18.477Z,93821.47
2023-03-31T03:01:24.018Z,93820.63
2023-03-31T03:04:27.089Z,93813.41
2023-03-31T03:07:07.262Z,93811.44
2023-03-31T03:09:52.598Z,93807.38
2023-03-31T03:12:54.532Z,93807.34
2023-03-31T03:15:28.753Z,93798.19
2023-03-31T03:17:57.097Z,93775.97
2023-03-31T03:20:24.259Z,93771.06
2023-03-31T03:22:51.170Z,93759.59
2023-03-31T03:25:18.415Z,93740.16
2023-03-31T03:27:45.290Z,93738.81
2023-03-31T03:30:13.873Z,93728.94
2023-03-31T03:32:42.000Z,93722.75
2023-03-31T03:35:09.384Z,93718.38
2023-03-31T03:37:36.448Z,93715.78
2023-03-31T03:40:06.270Z,93717.09
2023-03-31T03:42:34.656Z,93726.59
2023-03-31T03:45:02.181Z,93717.75
2023-03-31T03:47:29.383Z,93713.19
2023-03-31T03:49:56.654Z,93710.31
2023-03-31T03:52:23.560Z,93702.25
2023-03-31T03:54:50.435Z,93689.38
2023-03-31T03:57:17.438Z,93688.09
2023-03-31T03:59:44.334Z,93677.47
2023-03-31T04:02:11.301Z,93682.25
2023-03-31T04:04:38.268Z,93676.69
2023-03-31T04:07:05.599Z,93666.75
2023-03-31T04:09:32.565Z,93654.34
2023-03-31T04:11:59.583Z,93644.72
2023-03-31T04:14:26.606Z,93647.38
2023-03-31T04:16:56.571Z,93650.31
2023-03-31T04:19:26.168Z,93633.66
2023-03-31T04:21:59.231Z,93611.94
2023-03-31T04:24:30.966Z,93614.72
2023-03-31T04:26:58.752Z,93604.59
2023-03-31T04:29:28.668Z,93610.63
2023-03-31T04:31:59.220Z,93599.25
2023-03-31T04:34:35.438Z,93590.41
2023-03-31T04:37:03.730Z,93587.28
2023-03-31T04:39:31.448Z,93570.94
2023-03-31T04:41:59.819Z,93571.59
2023-03-31T04:44:27.551Z,93547.28
2023-03-31T04:46:55.122Z,93552.19
2023-03-31T04:49:22.479Z,93538.00
2023-03-31T04:51:49.427Z,93548.75
2023-03-31T04:54:16.423Z,93536.84
2023-03-31T04:56:43.451Z,93550.72
2023-03-31T04:59:11.316Z,93524.25
2023-03-31T05:01:38.212Z,93524.31
2023-03-31T05:04:06.017Z,93527.66
2023-03-31T05:06:33.779Z,93529.16
2023-03-31T05:09:00.844Z,93512.78
2023-03-31T05:11:27.676Z,93517.63
2023-03-31T05:13:54.897Z,93525.47
2023-03-31T05:16:22.083Z,93528.72
2023-03-31T05:18:49.094Z,93524.03
2023-03-31T05:21:19.762Z,93562.31
2023-03-31T05:23:47.364Z,93553.47
2023-03-31T05:26:15.067Z,93526.16
2023-03-31T05:28:42.742Z,93520.94
2023-03-31T05:31:13.338Z,93508.78
2023-03-31T05:33:42.312Z,93529.28
2023-03-31T05:36:15.689Z,93543.69
2023-03-31T05:38:43.519Z,93520.50
2023-03-31T05:41:11.340Z,93527.47
2023-03-31T05:43:39.825Z,93533.72
2023-03-31T05:46:07.569Z,93515.75
2023-03-31T05:48:35.635Z,93538.75
2023-03-31T05:51:02.555Z,93521.28
2023-03-31T05:53:30.464Z,93537.06
2023-03-31T05:56:02.443Z,93532.63
2023-03-31T05:58:30.258Z,93520.19
2023-03-31T06:01:06.705Z,93525.06
2023-03-31T06:03:35.852Z,93520.66
2023-03-31T06:06:03.355Z,93498.00
2023-03-31T06:08:30.501Z,93480.78
2023-03-31T06:10:57.959Z,93476.25
2023-03-31T06:13:25.091Z,93449.53
2023-03-31T06:16:00.535Z,93458.31
2023-03-31T06:18:30.195Z,93461.66
2023-03-31T06:20:58.005Z,93473.47
2023-03-31T06:23:26.021Z,93473.75
2023-03-31T06:25:53.865Z,93463.13
2023-03-31T06:28:21.645Z,93439.56
2023-03-31T06:30:48.675Z,93438.84
2023-03-31T06:33:16.684Z,93445.50
2023-03-31T06:35:43.570Z,93447.47
2023-03-31T06:38:10.828Z,93424.41
2023-03-31T06:40:37.762Z,93420.66
2023-03-31T06:43:04.677Z,93426.81
2023-03-31T06:45:31.520Z,93420.59
2023-03-31T06:47:58.437Z,93413.00
2023-03-31T06:50:25.294Z,93410.66
2023-03-31T06:52:55.377Z,93390.97
2023-03-31T06:55:22.367Z,93383.16
2023-03-31T06:57:49.274Z,93381.63
2023-03-31T07:00:17.202Z,93390.59
2023-03-31T07:02:44.210Z,93390.31
2023-03-31T07:05:11.910Z,93420.38
2023-03-31T07:07:38.813Z,93440.38
2023-03-31T07:10:06.525Z,93474.16
2023-03-31T07:12:34.274Z,93541.47
2023-03-31T07:15:01.127Z,93643.69
2023-03-31T07:17:28.067Z,93651.19
2023-03-31T07:19:54.988Z,93641.19
2023-03-31T07:22:21.849Z,93665.03
2023-03-31T07:24:48.679Z,93650.00
2023-03-31T07:27:15.565Z,93644.59
2023-03-31T07:29:42.409Z,93650.38
2023-03-31T07:32:09.846Z,93618.63
2023-03-31T07:34:37.807Z,93543.19
2023-03-31T07:37:05.090Z,93533.22
2023-03-31T07:39:31.969Z,93508.63
2023-03-31T07:41:58.817Z,93542.00
2023-03-31T07:44:25.832Z,93539.69
2023-03-31T07:46:52.693Z,93532.25
2023-03-31T07:49:19.550Z,93526.63
2023-03-31T07:51:46.392Z,93516.22
2023-03-31T07:54:13.276Z,93503.38
2023-03-31T07:56:40.128Z,93486.84
2023-03-31T07:59:07.104Z,93488.72
2023-03-31T08:01:34.079Z,93486.22
2023-03-31T08:04:01.382Z,93489.47
2023-03-31T08:06:29.292Z,93482.41
2023-03-31T08:08:56.590Z,93478.69
2023-03-31T08:11:24.536Z,93480.66
2023-03-31T08:13:51.852Z,93490.47
2023-03-31T08:16:19.220Z,93486.94
2023-03-31T08:18:46.425Z,93476.88
2023-03-31T08:21:13.323Z,93456.94
2023-03-31T08:23:40.146Z,93460.06
2023-03-31T08:26:14.500Z,93486.09
2023-03-31T08:28:43.334Z,93488.13
2023-03-31T08:31:10.725Z,93480.91
2023-03-31T08:33:38.072Z,93462.09
2023-03-31T08:36:09.545Z,93460.94
2023-03-31T08:38:42.031Z,93468.22
2023-03-31T08:41:40.085Z,93482.19
2023-03-31T08:44:22.948Z,93452.44
2023-03-31T08:46:53.413Z,93445.75
2023-03-31T08:49:21.917Z,93431.59
2023-03-31T08:51:53.364Z,93443.56
2023-03-31T08:54:34.056Z,93441.50
2023-03-31T08:57:02.338Z,93423.66
2023-03-31T08:59:37.852Z,93448.97
2023-03-31T09:02:26.229Z,93448.47
2023-03-31T09:05:59.966Z,93443.31
2023-03-31T09:08:38.935Z,93440.22
2023-03-31T09:11:15.832Z,93454.72
2023-03-31T09:13:56.980Z,93450.44
2023-03-31T09:16:35.746Z,93457.78
2023-03-31T09:19:03.816Z,93449.91
2023-03-31T09:21:42.270Z,93438.09
2023-03-31T09:24:46.192Z,93442.47
2023-03-31T09:27:13.388Z,93452.22
2023-03-31T09:29:56.716Z,93430.00
2023-03-31T09:32:28.325Z,93440.28
2023-03-31T09:35:26.854Z,93430.25
2023-03-31T09:37:54.650Z,93478.50
2023-03-31T09:40:25.217Z,93502.63
2023-03-31T09:43:19.957Z,93471.69
2023-03-31T09:46:01.382Z,93468.13
2023-03-31T09:48:36.745Z,93462.44
2023-03-31T09:51:08.670Z,93466.44
2023-03-31T09:53:46.648Z,93447.78
2023-03-31T09:56:14.390Z,93420.09
2023-03-31T09:58:44.621Z,93416.72
2023-03-31T10:01:14.555Z,93438.22
2023-03-31T10:03:54.041Z,93391.63
2023-03-31T10:06:23.372Z,93402.78
2023-03-31T10:09:00.217Z,93414.94
2023-03-31T10:11:30.041Z,93408.75
2023-03-31T10:14:04.922Z,93428.28
2023-03-31T10:16:47.279Z,93412.09
2023-03-31T10:19:20.403Z,93394.50
2023-03-31T10:21:49.107Z,93389.28
2023-03-31T10:24:20.083Z,93392.88
2023-03-31T10:26:53.618Z,93427.50
2023-03-31T10:29:31.022Z,93399.28
2023-03-31T10:32:18.885Z,93368.19
2023-03-31T10:34:46.608Z,93347.66
2023-03-31T10:37:20.612Z,93346.34
2023-03-31T10:39:48.003Z,93328.91
2023-03-31T10:42:25.880Z,93341.97
2023-03-31T10:45:36.652Z,93334.31
2023-03-31T10:48:06.960Z,93342.97
2023-03-31T10:50:36.985Z,93325.34
2023-03-31T10:53:14.399Z,93328.72
2023-03-31T10:56:02.124Z,93316.84
2023-03-31T10:59:05.691Z,93299.84
2023-03-31T11:02:25.158Z,93292.00
2023-03-31T11:05:07.127Z,93296.09
2023-03-31T11:07:55.479Z,93311.19
2023-03-31T11:10:31.594Z,93293.97
2023-03-31T11:13:34.078Z,93297.28
2023-03-31T11:16:51.462Z,93303.66
2023-03-31T11:19:42.577Z,93308.25
2023-03-31T11:22:36.874Z,93317.22
2023-03-31T11:25:44.605Z,93292.34
2023-03-31T11:28:30.526Z,93305.59
2023-03-31T11:31:48.989Z,93345.47
2023-03-31T11:34:27.407Z,93325.06
2023-03-31T11:37:19.741Z,93318.72
2023-03-31T11:40:16.702Z,93312.19
2023-03-31T11:43:11.267Z,93342.13
2023-03-31T11:46:05.406Z,93317.81
2023-03-31T11:48:41.047Z,93346.28
2023-03-31T11:51:17.511Z,93331.03
2023-03-31T11:53:46.252Z,93332.91
2023-03-31T11:56:13.745Z,93327.16
2023-03-31T11:58:52.387Z,93345.56
2023-03-31T12:01:28.786Z,93360.63
2023-03-31T12:04:30.634Z,93369.66
2023-03-31T12:07:05.475Z,93355.47
2023-03-31T12:09:53.750Z,93366.56
2023-03-31T12:12:27.567Z,93380.88
2023-03-31T12:15:17.567Z,93379.28
2023-03-31T12:17:49.851Z,93373.00
2023-03-31T12:20:34.116Z,93366.66
2023-03-31T12:23:05.111Z,93349.84
2023-03-31T12:25:48.132Z,93355.59
2023-03-31T12:28:17.016Z,93338.19
2023-03-31T12:30:45.127Z,93327.56
2023-03-31T12:33:31.874Z,93369.38
2023-03-31T12:36:37.623Z,93378.47
2023-03-31T12:39:25.816Z,93378.47
2023-03-31T12:42:25.716Z,93329.50
2023-03-31T12:45:29.706Z,93364.69
2023-03-31T12:48:33.871Z,93346.16
2023-03-31T12:51:28.760Z,93341.78
2023-03-31T12:54:14.600Z,93344.41
2023-03-31T12:57:05.726Z,93317.22
2023-03-31T12:59:39.145Z,93319.38
2023-03-31T13:02:17.827Z,93297.31
2023-03-31T13:04:44.849Z,93297.72
2023-03-31T13:07:28.277Z,93292.63
2023-03-31T13:09:58.820Z,93276.56
2023-03-31T13:12:28.733Z,93257.16
2023-03-31T13:18:06.770Z,93236.38
2023-03-31T13:20:37.942Z,93237.09
2023-03-31T13:23:26.099Z,93231.16
2023-03-31T13:25:55.616Z,93214.91
2023-03-31T13:28:22.394Z,93228.59
2023-03-31T13:30:56.485Z,93239.44
2023-03-31T13:33:51.445Z,93255.94
2023-03-31T13:36:18.263Z,93258.75
2023-03-31T13:39:05.706Z,93260.25
2023-03-31T13:42:01.604Z,93261.50
2023-03-31T13:44:55.954Z,93266.66
2023-03-31T13:47:56.754Z,93269.59
2023-03-31T13:50:49.161Z,93266.72
2023-03-31T13:53:21.856Z,93265.66
2023-03-31T13:56:09.465Z,93260.75
2023-03-31T13:58:39.410Z,93260.38
2023-03-31T14:01:18.429Z,93272.47
2023-03-31T14:04:09.497Z,93273.53
2023-03-31T14:06:53.005Z,93283.75
2023-03-31T14:09:35.272Z,93285.97
2023-03-31T14:12:30.499Z,93290.13
2023-03-31T14:14:57.852Z,93282.44
2023-03-31T14:17:30.968Z,93277.16
2023-03-31T14:20:16.290Z,93266.44
2023-03-31T14:23:24.594Z,93260.56
2023-03-31T14:26:27.239Z,93250.56
2023-03-31T14:29:36.174Z,93271.66
2023-03-31T14:32:15.039Z,93259.53
2023-03-31T14:34:47.683Z,93283.16
2023-03-31T14:37:18.061Z,93274.47
2023-03-31T14:39:56.655Z,93276.78
2023-03-31T14:42:38.268Z,93298.88
2023-03-31T14:45:17.389Z,93332.38
2023-03-31T14:47:58.527Z,93344.16
2023-03-31T14:50:36.298Z,93367.84
2023-03-31T14:53:05.003Z,93369.88
2023-03-31T14:55:49.254Z,93376.94
2023-03-31T14:58:27.410Z,93332.00
2023-03-31T15:00:55.114Z,93327.56
2023-03-31T15:03:22.100Z,93340.28
2023-03-31T15:05:50.363Z,93364.75
2023-03-31T15:08:23.002Z,93345.88
2023-03-31T15:11:05.691Z,93321.31
2023-03-31T15:14:00.563Z,93297.81
2023-03-31T15:16:47.236Z,93274.88
2023-03-31T15:19:20.244Z,93263.00
2023-03-31T15:21:54.945Z,93275.63
2023-03-31T15:24:22.170Z,93278.25
2023-03-31T15:26:57.934Z,93295.47
2023-03-31T15:29:51.620Z,93272.50
2023-03-31T15:32:27.379Z,93287.88
2023-03-31T15:34:57.269Z,93281.41
2023-03-31T15:37:32.043Z,93276.56
2023-03-31T15:40:01.728Z,93276.75
2023-03-31T15:42:29.312Z,93275.13
2023-03-31T15:45:21.043Z,93287.06
2023-03-31T15:47:52.874Z,93278.13
2023-03-31T15:50:23.323Z,93283.81
2023-03-31T15:52:58.302Z,93292.31
2023-03-31T15:55:29.745Z,93297.16
2023-03-31T15:58:01.400Z,93294.50
2023-03-31T16:00:34.485Z,93299.19
2023-03-31T16:03:05.418Z,93303.63
2023-03-31T16:05:55.466Z,93292.72
2023-03-31T16:08:36.202Z,93273.13
2023-03-31T16:11:11.276Z,93285.09
2023-03-31T16:13:42.971Z,93274.59
2023-03-31T16:16:15.780Z,93260.38
2023-03-31T16:18:48.081Z,93283.03
2023-03-31T16:21:22.640Z,93270.66
2023-03-31T16:23:54.635Z,93275.16
2023-03-31T16:26:25.064Z,93268.88
2023-03-31T16:28:54.771Z,93265.63
2023-03-31T16:31:31.200Z,93263.03
2023-03-31T16:33:58.171Z,93259.59
2023-03-31T16:36:25.137Z,93250.25
2023-03-31T16:38:56.064Z,93271.50
2023-03-31T16:41:23.677Z,93270.69
2023-03-31T16:43:52.723Z,93268.03
2023-03-31T16:46:19.873Z,93261.97
2023-03-31T16:48:46.839Z,93251.03
2023-03-31T16:51:14.474Z,93248.44
2023-03-31T16:53:41.307Z,93239.72
2023-03-31T16:56:09.688Z,93253.03
2023-03-31T16:58:38.139Z,93256.50
2023-03-31T17:01:07.626Z,93255.09
2023-03-31T17:03:35.241Z,93256.69
2023-03-31T17:06:08.893Z,93261.53
2023-03-31T17:08:35.837Z,93271.22
2023-03-31T17:11:11.210Z,93292.59
2023-03-31T17:13:40.583Z,93301.91
2023-03-31T17:16:16.358Z,93289.56
2023-03-31T17:18:45.008Z,93305.31
2023-03-31T17:21:18.487Z,93306.13
2023-03-31T17:23:46.972Z,93304.72
2023-03-31T17:26:14.666Z,93314.41
2023-03-31T17:28:42.854Z,93312.78
2023-03-31T17:31:19.008Z,93313.13
2023-03-31T17:33:46.450Z,93316.53
2023-03-31T17:36:13.626Z,93326.06
2023-03-31T17:38:41.936Z,93337.50
2023-03-31T17:41:13.119Z,93318.72
2023-03-31T17:43:40.578Z,93328.78
2023-03-31T17:46:13.903Z,93323.84
2023-03-31T17:48:42.121Z,93328.94
2023-03-31T17:51:18.258Z,93333.16
2023-03-31T17:53:47.584Z,93343.03
2023-03-31T17:56:16.690Z,93320.53
2023-03-31T17:58:44.303Z,93335.50
2023-03-31T18:01:12.068Z,93340.72
2023-03-31T18:03:39.172Z,93346.75
2023-03-31T18:06:08.417Z,93346.41
2023-03-31T18:08:36.359Z,93344.22
2023-03-31T18:11:05.554Z,93352.91
2023-03-31T18:13:34.956Z,93356.59
2023-03-31T18:16:02.782Z,93358.59
2023-03-31T18:18:29.774Z,93372.72
2023-03-31T18:20:57.487Z,93361.59
2023-03-31T18:23:24.371Z,93366.34
2023-03-31T18:25:51.894Z,93368.66
2023-03-31T18:28:19.021Z,93370.00
2023-03-31T18:30:47.464Z,93377.75
2023-03-31T18:33:14.982Z,93371.56
2023-03-31T18:35:42.256Z,93362.78
2023-03-31T18:38:11.055Z,93359.53
2023-03-31T18:40:39.715Z,93372.03
2023-03-31T18:43:11.362Z,93371.06
2023-03-31T18:45:38.948Z,93366.25
2023-03-31T18:48:06.377Z,93370.34
2023-03-31T18:50:33.526Z,93369.56
2023-03-31T18:53:00.368Z,93365.28
2023-03-31T18:55:29.392Z,93359.38
2023-03-31T18:57:56.511Z,93355.09
2023-03-31T19:00:23.872Z,93371.44
2023-03-31T19:02:51.654Z,93370.94
2023-03-31T19:05:18.639Z,93385.63
2023-03-31T19:07:45.776Z,93390.44
2023-03-31T19:10:12.654Z,93396.31
2023-03-31T19:12:40.458Z,93393.34
2023-03-31T19:15:08.206Z,93393.69
2023-03-31T19:17:36.408Z,93385.16
2023-03-31T19:20:03.632Z,93399.31
2023-03-31T19:22:32.162Z,93401.13
2023-03-31T19:24:59.048Z,93396.66
2023-03-31T19:27:26.030Z,93382.09
2023-03-31T19:29:52.997Z,93381.56
2023-03-31T19:32:19.895Z,93368.13
2023-03-31T19:34:46.834Z,93370.66
2023-03-31T19:37:13.891Z,93379.69
2023-03-31T19:39:41.118Z,93361.72
2023-03-31T19:42:07.962Z,93364.63
2023-03-31T19:44:34.806Z,93357.78
2023-03-31T19:47:01.687Z,93353.88
2023-03-31T19:49:28.557Z,93362.09
2023-03-31T19:51:56.706Z,93371.66
2023-03-31T19:54:23.531Z,93364.19
2023-03-31T19:56:50.639Z,93360.97
2023-03-31T19:59:17.804Z,93361.19
2023-03-31T20:01:44.734Z,93365.34
2023-03-31T20:04:12.556Z,93381.22
2023-03-31T20:06:39.542Z,93379.97
2023-03-31T20:09:06.545Z,93380.97
2023-03-31T20:11:33.668Z,93376.22
2023-03-31T20:14:02.001Z,93370.16
2023-03-31T20:16:30.912Z,93373.69
2023-03-31T20:19:01.639Z,93390.09
2023-03-31T20:21:31.524Z,93389.75
2023-03-31T20:23:59.060Z,93386.41
2023-03-31T20:26:31.741Z,93382.81
2023-03-31T20:29:02.889Z,93398.69
2023-03-31T20:31:36.718Z,93395.72
2023-03-31T20:34:04.786Z,93406.97
2023-03-31T20:36:32.273Z,93406.91
2023-03-31T20:39:00.464Z,93415.09
2023-03-31T20:41:29.123Z,93418.44
2023-03-31T20:43:56.906Z,93401.22
2023-03-31T20:46:24.413Z,93426.38
2023-03-31T20:48:55.260Z,93434.59
2023-03-31T20:51:25.431Z,93422.13
2023-03-31T20:53:53.841Z,93412.66
2023-03-31T20:56:24.555Z,93431.34
2023-03-31T20:58:53.797Z,93433.34
2023-03-31T21:01:22.342Z,93428.72
2023-03-31T21:03:50.282Z,93413.03
2023-03-31T21:06:20.832Z,93436.75
2023-03-31T21:08:53.208Z,93447.69
2023-03-31T21:11:20.590Z,93455.09
2023-03-31T21:13:48.923Z,93457.94
2023-03-31T21:16:17.715Z,93457.78
2023-03-31T21:18:44.598Z,93446.69
2023-03-31T21:21:18.990Z,93470.78
2023-03-31T21:23:47.138Z,93465.28
2023-03-31T21:26:16.444Z,93457.88
2023-03-31T21:28:44.492Z,93458.69
2023-03-31T21:31:18.298Z,93470.50
2023-03-31T21:33:47.168Z,93464.13
2023-03-31T21:36:18.175Z,93465.91
2023-03-31T21:38:45.801Z,93458.13
2023-03-31T21:41:16.728Z,93444.84
2023-03-31T21:43:44.555Z,93455.44
2023-03-31T21:46:30.313Z,93456.63
2023-03-31T21:48:57.685Z,93444.44
2023-03-31T21:51:25.903Z,93453.63
2023-03-31T21:53:55.682Z,93439.28
2023-03-31T21:56:25.627Z,93432.97
2023-03-31T21:58:52.811Z,93438.75
2023-03-31T22:01:20.772Z,93438.91
2023-03-31T22:03:49.001Z,93423.84
2023-03-31T22:06:16.433Z,93437.56
2023-03-31T22:08:43.341Z,93415.09
2023-03-31T22:11:11.898Z,93429.25
2023-03-31T22:13:39.283Z,93431.41
2023-03-31T22:16:19.492Z,93436.56
2023-03-31T22:18:47.824Z,93438.19
2023-03-31T22:21:19.994Z,93437.09
2023-03-31T22:23:47.026Z,93435.19
2023-03-31T22:26:13.996Z,93434.41
2023-03-31T22:28:41.022Z,93420.94
2023-03-31T22:31:08.302Z,93420.59
2023-03-31T22:33:35.137Z,93399.19
2023-03-31T22:36:02.075Z,93415.81
2023-03-31T22:38:28.966Z,93420.03
2023-03-31T22:40:55.850Z,93390.72
2023-03-31T22:43:22.824Z,93409.03
2023-03-31T22:45:49.674Z,93416.94
2023-03-31T22:48:16.982Z,93419.75
2023-03-31T22:50:44.148Z,93409.66
2023-03-31T22:53:11.104Z,93418.41
2023-03-31T22:55:54.082Z,93417.78
2023-03-31T22:58:21.691Z,93433.84
2023-03-31T23:00:57.540Z,93427.34
2023-03-31T23:03:25.247Z,93433.63
2023-03-31T23:05:52.175Z,93438.78
2023-03-31T23:08:19.760Z,93426.50
2023-03-31T23:10:58.022Z,93434.34
2023-03-31T23:13:26.202Z,93440.03
2023-03-31T23:15:53.311Z,93443.75
2023-03-31T23:18:20.687Z,93425.63
2023-03-31T23:20:47.821Z,93425.38
2023-03-31T23:23:15.072Z,93426.19
2023-03-31T23:25:41.905Z,93434.66
2023-03-31T23:28:08.800Z,93422.00
2023-03-31T23:30:35.679Z,93423.94
2023-03-31T23:33:02.602Z,93433.00
2023-03-31T23:35:29.454Z,93424.34
2023-03-31T23:37:56.373Z,93417.50
2023-03-31T23:40:23.476Z,93440.69
2023-03-31T23:42:50.314Z,93428.06
2023-03-31T23:45:17.588Z,93435.38
2023-03-31T23:47:44.532Z,93442.75
2023-03-31T23:50:11.630Z,93431.50
2023-03-31T23:52:38.682Z,93440.94
2023-03-31T23:55:05.930Z,93445.41
2023-03-31T23:57:32.892Z,93433.22
2023-03-31T23:59:59.714Z,93413.00
